Diba, Oman

2:54 AM GST on October 23, 2014 (GMT +0400)
Ras Al Khaimah International | Change Station
CLOSE
Current Station
Airport
Location: Ras Al Khaimah,
Elevation: 102 ft
Nearby Weather Stations

Elev 102 ft 25.61 °N, 55.94 °E | Updated 54 minutes ago

Clear
Clear
81 °F
Feels Like 85 °F
N
7
Wind Variable Wind from South

Today
High -- | Low -- °F
--% Chance of Precip.
Yesterday
High -- | Low -- °F
Precip. -- in
6:17 AM 5:40 PM
Waning Crescent, 1% visible
Pressure 29.92 in
Visibility -9999.0 miles
Clouds
Heat Index 85 °F
Dew Point 73 °F
Humidity 79%
Rainfall 0.00 in
Snow Depth Not available.
UV Not available.
Pollen Not available.
Air Quality Not available.
Flu Activity Not available.
METAR OMRK 222200Z 19006KT CAVOK 27/23 Q1013 A2993

More Conditions Fewer Conditions

Pressure 29.92 in
Visibility -9999.0 miles
Clouds
Heat Index 85 °F
Dew Point 73 °F
Humidity 79%
Rainfall 0.00 in
Snow Depth Not available.
UV Not available.
Pollen Not available.
Air Quality Not available.
Flu Activity Not available.
METAR OMRK 222200Z 19006KT CAVOK 27/23 Q1013 A2993

More Conditions Fewer Conditions

10-Day Weather Forecast

Almanac

Astronomy

Oct. 23, 2014 Rise Set
Actual Time 6:17 AM GST 5:40 PM GST
Civil Twilight 5:54 AM GST 6:04 PM GST
Nautical Twilight 5:27 AM GST 6:30 PM GST
Astronomical Twilight 5:00 AM GST 6:57 PM GST
Moon 5:37 AM GST (10/23) 5:25 PM GST (10/23)
Length of Visible Light 12h 09m
Length of Day
11h 23m
Tomorrow will be 1m 22s shorter.
Waning Crescent, 1% of the Moon is Illuminated
Oct 22
Waning Crescent
Oct 23
New
Oct 30
First Quarter
Nov 6
Full
Nov 14
Last Quarter

Yesterday's Extremes

Country Highs Country Lows

Community

WunderPhotos

Upload Photos

1,764,065 photos uploaded!

WunderBlogs® & News

Nearby

Snow Depth

Not available.

Earthquake Activity

City Distance Mag. Time & Date
No recent earthquake activity has been reported nearby.
Minimum magnitude displayed is 2.5.

Coastal Water Temperatures

Place Temperature
No Stations Reporting

Nearby Weather Stations